sensor_id;sensor_type;location;lat;lon;timestamp;pressure;altitude;pressure_sealevel;temperature;humidity
62510;BME280;48558;48.242;11.654;2023-03-22T00:03:20;96104.00;;;6.81;100.00
62510;BME280;48558;48.242;11.654;2023-03-22T00:07:33;96109.72;;;6.86;100.00
62510;BME280;48558;48.242;11.654;2023-03-22T00:11:46;96098.72;;;6.86;100.00
62510;BME280;48558;48.242;11.654;2023-03-22T00:16:03;96100.00;;;6.94;100.00
62510;BME280;48558;48.242;11.654;2023-03-22T00:20:16;96093.19;;;6.99;100.00
62510;BME280;48558;48.242;11.654;2023-03-22T00:24:31;96086.34;;;7.03;100.00
62510;BME280;48558;48.242;11.654;2023-03-22T00:28:44;96073.59;;;7.09;100.00
62510;BME280;48558;48.242;11.654;2023-03-22T00:32:56;96081.00;;;7.21;100.00
62510;BME280;48558;48.242;11.654;2023-03-22T00:37:09;96080.03;;;7.28;100.00
62510;BME280;48558;48.242;11.654;2023-03-22T00:41:22;96070.06;;;7.43;100.00
62510;BME280;48558;48.242;11.654;2023-03-22T00:45:35;96064.41;;;7.47;100.00
62510;BME280;48558;48.242;11.654;2023-03-22T00:49:49;96056.38;;;7.52;100.00
62510;BME280;48558;48.242;11.654;2023-03-22T00:54:02;96027.84;;;7.59;100.00
62510;BME280;48558;48.242;11.654;2023-03-22T00:58:14;96043.25;;;7.87;100.00
62510;BME280;48558;48.242;11.654;2023-03-22T01:02:27;96047.28;;;7.95;100.00
62510;BME280;48558;48.242;11.654;2023-03-22T01:06:40;96049.47;;;8.00;100.00
62510;BME280;48558;48.242;11.654;2023-03-22T01:10:53;96049.47;;;8.00;100.00
62510;BME280;48558;48.242;11.654;2023-03-22T01:15:06;96057.75;;;8.09;100.00
62510;BME280;48558;48.242;11.654;2023-03-22T01:19:20;96064.97;;;8.16;100.00
62510;BME280;48558;48.242;11.654;2023-03-22T01:23:32;96040.63;;;8.14;100.00
62510;BME280;48558;48.242;11.654;2023-03-22T01:27:45;96043.72;;;8.16;100.00
62510;BME280;48558;48.242;11.654;2023-03-22T01:31:58;96039.13;;;8.13;100.00
62510;BME280;48558;48.242;11.654;2023-03-22T01:36:11;96029.88;;;8.29;100.00
62510;BME280;48558;48.242;11.654;2023-03-22T01:40:23;96031.06;;;8.28;100.00
62510;BME280;48558;48.242;11.654;2023-03-22T01:49:28;96027.94;;;8.17;100.00
62510;BME280;48558;48.242;11.654;2023-03-22T01:53:49;96022.91;;;8.15;100.00
62510;BME280;48558;48.242;11.654;2023-03-22T01:58:03;96035.91;;;8.15;100.00
62510;BME280;48558;48.242;11.654;2023-03-22T02:02:26;96037.44;;;8.16;100.00
62510;BME280;48558;48.242;11.654;2023-03-22T02:06:42;96036.28;;;8.26;100.00
62510;BME280;48558;48.242;11.654;2023-03-22T02:11:01;96028.13;;;8.22;100.00
62510;BME280;48558;48.242;11.654;2023-03-22T02:25:26;96024.88;;;7.75;100.00
62510;BME280;48558;48.242;11.654;2023-03-22T02:29:40;96028.50;;;7.19;100.00
62510;BME280;48558;48.242;11.654;2023-03-22T02:39:03;96016.81;;;6.72;100.00
62510;BME280;48558;48.242;11.654;2023-03-22T02:53:03;96031.63;;;6.28;100.00
62510;BME280;48558;48.242;11.654;2023-03-22T02:58:03;96031.97;;;6.30;100.00
62510;BME280;48558;48.242;11.654;2023-03-22T03:01:57;96033.72;;;6.11;100.00
62510;BME280;48558;48.242;11.654;2023-03-22T03:06:14;96047.34;;;6.02;100.00
62510;BME280;48558;48.242;11.654;2023-03-22T03:10:29;96042.75;;;5.99;100.00
62510;BME280;48558;48.242;11.654;2023-03-22T03:14:42;96047.13;;;5.97;100.00
62510;BME280;48558;48.242;11.654;2023-03-22T03:19:02;96043.28;;;5.94;100.00
62510;BME280;48558;48.242;11.654;2023-03-22T03:23:59;96041.09;;;6.14;100.00
62510;BME280;48558;48.242;11.654;2023-03-22T03:28:25;96043.38;;;6.28;100.00
62510;BME280;48558;48.242;11.654;2023-03-22T03:32:48;96031.84;;;6.21;100.00
62510;BME280;48558;48.242;11.654;2023-03-22T03:37:17;96033.72;;;6.24;100.00
62510;BME280;48558;48.242;11.654;2023-03-22T03:41:32;96033.50;;;6.18;100.00
62510;BME280;48558;48.242;11.654;2023-03-22T03:45:54;96028.88;;;6.15;100.00
62510;BME280;48558;48.242;11.654;2023-03-22T03:50:17;96039.88;;;6.15;100.00
62510;BME280;48558;48.242;11.654;2023-03-22T03:54:30;96020.03;;;5.99;100.00
62510;BME280;48558;48.242;11.654;2023-03-22T03:58:43;96012.56;;;5.87;100.00
62510;BME280;48558;48.242;11.654;2023-03-22T04:03:05;96029.84;;;5.83;100.00
62510;BME280;48558;48.242;11.654;2023-03-22T04:07:18;96027.66;;;5.66;100.00
62510;BME280;48558;48.242;11.654;2023-03-22T04:11:31;96028.50;;;5.50;100.00
62510;BME280;48558;48.242;11.654;2023-03-22T04:15:44;96028.38;;;5.41;100.00
62510;BME280;48558;48.242;11.654;2023-03-22T04:19:57;96023.09;;;5.22;100.00
62510;BME280;48558;48.242;11.654;2023-03-22T04:24:09;96017.91;;;5.11;100.00
62510;BME280;48558;48.242;11.654;2023-03-22T04:28:22;96017.56;;;5.09;100.00
62510;BME280;48558;48.242;11.654;2023-03-22T04:32:45;96019.75;;;5.14;100.00
62510;BME280;48558;48.242;11.654;2023-03-22T04:36:58;96024.25;;;5.08;100.00
62510;BME280;48558;48.242;11.654;2023-03-22T04:41:13;96018.72;;;4.95;100.00
62510;BME280;48558;48.242;11.654;2023-03-22T04:45:36;96022.41;;;4.89;100.00
62510;BME280;48558;48.242;11.654;2023-03-22T04:49:48;96017.13;;;4.82;100.00
62510;BME280;48558;48.242;11.654;2023-03-22T04:54:01;96003.56;;;4.78;100.00
62510;BME280;48558;48.242;11.654;2023-03-22T04:58:13;96015.53;;;4.68;100.00
62510;BME280;48558;48.242;11.654;2023-03-22T05:02:38;95993.78;;;4.49;100.00
62510;BME280;48558;48.242;11.654;2023-03-22T05:06:52;96019.22;;;4.62;100.00
62510;BME280;48558;48.242;11.654;2023-03-22T05:11:07;96022.84;;;4.59;100.00
62510;BME280;48558;48.242;11.654;2023-03-22T05:15:22;96025.03;;;4.64;100.00
62510;BME280;48558;48.242;11.654;2023-03-22T05:19:35;96020.78;;;4.63;100.00
62510;BME280;48558;48.242;11.654;2023-03-22T05:23:47;96009.66;;;4.70;100.00
62510;BME280;48558;48.242;11.654;2023-03-22T05:28:02;96021.16;;;4.77;100.00
62510;BME280;48558;48.242;11.654;2023-03-22T05:32:14;96033.38;;;4.89;100.00
62510;BME280;48558;48.242;11.654;2023-03-22T05:36:29;96032.63;;;4.88;100.00
62510;BME280;48558;48.242;11.654;2023-03-22T05:40:42;96034.72;;;4.97;100.00
62510;BME280;48558;48.242;11.654;2023-03-22T05:44:57;96032.91;;;5.06;100.00
62510;BME280;48558;48.242;11.654;2023-03-22T05:49:09;96026.97;;;5.08;100.00
62510;BME280;48558;48.242;11.654;2023-03-22T05:53:22;96029.03;;;5.33;100.00
62510;BME280;48558;48.242;11.654;2023-03-22T05:57:35;96025.97;;;5.43;100.00
62510;BME280;48558;48.242;11.654;2023-03-22T06:01:55;96022.03;;;5.57;100.00
62510;BME280;48558;48.242;11.654;2023-03-22T06:06:08;96028.22;;;5.73;100.00
62510;BME280;48558;48.242;11.654;2023-03-22T06:10:25;96030.69;;;5.97;100.00
62510;BME280;48558;48.242;11.654;2023-03-22T06:14:39;96026.91;;;6.16;100.00
62510;BME280;48558;48.242;11.654;2023-03-22T06:18:51;96019.34;;;6.32;100.00
62510;BME280;48558;48.242;11.654;2023-03-22T06:23:04;96035.53;;;6.65;100.00
62510;BME280;48558;48.242;11.654;2023-03-22T06:27:17;96032.00;;;6.98;100.00
62510;BME280;48558;48.242;11.654;2023-03-22T06:31:33;96015.47;;;7.33;100.00
62510;BME280;48558;48.242;11.654;2023-03-22T06:35:57;96015.03;;;7.65;100.00
62510;BME280;48558;48.242;11.654;2023-03-22T06:40:11;96030.06;;;8.04;100.00
62510;BME280;48558;48.242;11.654;2023-03-22T06:44:24;96009.34;;;8.21;100.00
62510;BME280;48558;48.242;11.654;2023-03-22T06:48:37;96033.66;;;8.80;100.00
62510;BME280;48558;48.242;11.654;2023-03-22T06:52:49;96038.75;;;9.18;100.00
62510;BME280;48558;48.242;11.654;2023-03-22T06:57:02;96030.09;;;9.52;100.00
62510;BME280;48558;48.242;11.654;2023-03-22T07:01:14;96026.97;;;9.86;100.00
62510;BME280;48558;48.242;11.654;2023-03-22T07:05:27;96026.59;;;10.12;100.00
62510;BME280;48558;48.242;11.654;2023-03-22T07:09:40;96027.13;;;10.34;100.00
62510;BME280;48558;48.242;11.654;2023-03-22T07:14:02;96027.50;;;10.50;100.00
62510;BME280;48558;48.242;11.654;2023-03-22T07:18:15;96037.47;;;10.80;100.00
62510;BME280;48558;48.242;11.654;2023-03-22T07:22:27;96035.25;;;11.08;100.00
62510;BME280;48558;48.242;11.654;2023-03-22T07:26:50;96042.84;;;11.22;100.00
62510;BME280;48558;48.242;11.654;2023-03-22T07:31:08;96035.66;;;11.54;100.00
62510;BME280;48558;48.242;11.654;2023-03-22T07:35:23;96035.13;;;11.79;100.00
62510;BME280;48558;48.242;11.654;2023-03-22T07:39:37;96030.63;;;11.96;100.00
62510;BME280;48558;48.242;11.654;2023-03-22T07:43:50;96029.50;;;12.03;100.00
62510;BME280;48558;48.242;11.654;2023-03-22T07:48:12;96029.28;;;12.21;100.00
62510;BME280;48558;48.242;11.654;2023-03-22T07:52:25;96014.38;;;12.18;100.00
62510;BME280;48558;48.242;11.654;2023-03-22T07:56:37;96036.72;;;12.30;100.00
62510;BME280;48558;48.242;11.654;2023-03-22T08:00:50;96031.78;;;12.54;100.00
62510;BME280;48558;48.242;11.654;2023-03-22T08:05:02;96025.63;;;12.64;100.00
62510;BME280;48558;48.242;11.654;2023-03-22T08:09:16;96036.06;;;12.89;100.00
62510;BME280;48558;48.242;11.654;2023-03-22T08:13:29;96029.56;;;12.92;100.00
62510;BME280;48558;48.242;11.654;2023-03-22T08:17:42;96035.75;;;13.02;100.00
62510;BME280;48558;48.242;11.654;2023-03-22T08:21:54;96040.50;;;13.02;100.00
62510;BME280;48558;48.242;11.654;2023-03-22T08:26:07;96033.25;;;13.24;100.00
62510;BME280;48558;48.242;11.654;2023-03-22T08:30:20;96041.28;;;13.42;100.00
62510;BME280;48558;48.242;11.654;2023-03-22T08:34:37;96042.63;;;13.73;100.00
62510;BME280;48558;48.242;11.654;2023-03-22T08:38:52;96035.44;;;13.86;100.00
62510;BME280;48558;48.242;11.654;2023-03-22T08:43:05;96041.31;;;13.94;100.00
62510;BME280;48558;48.242;11.654;2023-03-22T08:47:17;96028.78;;;14.04;100.00
62510;BME280;48558;48.242;11.654;2023-03-22T08:51:30;96017.50;;;14.13;94.21
62510;BME280;48558;48.242;11.654;2023-03-22T08:55:45;96015.28;;;14.22;91.97
62510;BME280;48558;48.242;11.654;2023-03-22T08:59:58;96016.25;;;14.87;82.39
62510;BME280;48558;48.242;11.654;2023-03-22T09:04:11;96016.81;;;15.02;81.84
62510;BME280;48558;48.242;11.654;2023-03-22T09:08:23;96019.69;;;15.25;79.78
62510;BME280;48558;48.242;11.654;2023-03-22T09:12:37;96023.38;;;15.58;76.92
62510;BME280;48558;48.242;11.654;2023-03-22T09:16:54;96019.88;;;15.69;78.10
62510;BME280;48558;48.242;11.654;2023-03-22T09:21:08;96018.34;;;15.68;75.34
62510;BME280;48558;48.242;11.654;2023-03-22T09:25:21;96011.53;;;15.86;71.52
62510;BME280;48558;48.242;11.654;2023-03-22T09:29:43;96007.94;;;15.63;68.02
62510;BME280;48558;48.242;11.654;2023-03-22T09:33:56;96000.16;;;15.95;68.82
62510;BME280;48558;48.242;11.654;2023-03-22T09:38:09;96001.19;;;16.25;67.20
62510;BME280;48558;48.242;11.654;2023-03-22T09:42:39;95996.59;;;16.33;63.53
62510;BME280;48558;48.242;11.654;2023-03-22T09:46:56;95985.97;;;16.04;62.74
62510;BME280;48558;48.242;11.654;2023-03-22T09:51:32;95993.81;;;16.61;60.11
62510;BME280;48558;48.242;11.654;2023-03-22T10:18:44;95965.50;;;17.66;51.29
62510;BME280;48558;48.242;11.654;2023-03-22T10:23:02;95956.31;;;18.06;51.71
62510;BME280;48558;48.242;11.654;2023-03-22T10:27:19;95964.91;;;17.78;51.42
62510;BME280;48558;48.242;11.654;2023-03-22T10:31:33;95952.06;;;18.00;50.19
62510;BME280;48558;48.242;11.654;2023-03-22T10:35:46;95950.25;;;18.86;50.99
62510;BME280;48558;48.242;11.654;2023-03-22T10:40:02;95938.56;;;17.98;52.13
62510;BME280;48558;48.242;11.654;2023-03-22T10:44:20;95938.97;;;18.91;48.07
62510;BME280;48558;48.242;11.654;2023-03-22T10:48:46;95945.09;;;19.70;47.17
62510;BME280;48558;48.242;11.654;2023-03-22T10:57:16;95932.47;;;18.83;50.77
62510;BME280;48558;48.242;11.654;2023-03-22T11:01:31;95936.19;;;20.03;46.93
62510;BME280;48558;48.242;11.654;2023-03-22T11:06:07;95937.53;;;20.60;47.87
62510;BME280;48558;48.242;11.654;2023-03-22T11:10:30;95932.88;;;20.18;44.68
62510;BME280;48558;48.242;11.654;2023-03-22T11:14:46;95937.56;;;19.96;44.28
62510;BME280;48558;48.242;11.654;2023-03-22T11:19:00;95934.94;;;19.85;44.11
62510;BME280;48558;48.242;11.654;2023-03-22T11:23:19;95938.22;;;20.02;45.37
62510;BME280;48558;48.242;11.654;2023-03-22T11:27:33;95929.47;;;20.25;42.23
62510;BME280;48558;48.242;11.654;2023-03-22T11:31:58;95933.78;;;19.19;44.96
62510;BME280;48558;48.242;11.654;2023-03-22T11:36:17;95924.78;;;19.82;42.52
62510;BME280;48558;48.242;11.654;2023-03-22T11:40:34;95913.78;;;19.84;42.51
62510;BME280;48558;48.242;11.654;2023-03-22T11:44:47;95915.41;;;19.61;43.62
62510;BME280;48558;48.242;11.654;2023-03-22T11:49:04;95909.03;;;19.92;43.06
62510;BME280;48558;48.242;11.654;2023-03-22T11:53:32;95898.06;;;19.63;44.85
62510;BME280;48558;48.242;11.654;2023-03-22T11:57:47;95894.13;;;19.53;43.19
62510;BME280;48558;48.242;11.654;2023-03-22T12:02:25;95887.38;;;20.38;45.10
62510;BME280;48558;48.242;11.654;2023-03-22T12:06:40;95884.38;;;19.72;43.01
62510;BME280;48558;48.242;11.654;2023-03-22T12:11:04;95885.25;;;19.99;41.47
62510;BME280;48558;48.242;11.654;2023-03-22T12:15:34;95869.25;;;20.39;44.07
62510;BME280;48558;48.242;11.654;2023-03-22T12:20:04;95863.44;;;20.50;42.66
62510;BME280;48558;48.242;11.654;2023-03-22T12:28:55;95852.84;;;20.43;41.34
62510;BME280;48558;48.242;11.654;2023-03-22T12:33:23;95848.53;;;21.07;41.38
62510;BME280;48558;48.242;11.654;2023-03-22T12:37:50;95832.22;;;20.40;41.52
62510;BME280;48558;48.242;11.654;2023-03-22T12:42:27;95840.22;;;21.35;41.32
62510;BME280;48558;48.242;11.654;2023-03-22T12:46:58;95829.81;;;21.43;42.15
62510;BME280;48558;48.242;11.654;2023-03-22T12:51:23;95821.13;;;21.75;40.09
62510;BME280;48558;48.242;11.654;2023-03-22T12:55:37;95816.28;;;22.53;39.89
62510;BME280;48558;48.242;11.654;2023-03-22T12:59:52;95810.84;;;22.83;39.79
62510;BME280;48558;48.242;11.654;2023-03-22T13:04:45;95798.25;;;22.76;40.04
62510;BME280;48558;48.242;11.654;2023-03-22T13:09:11;95804.09;;;22.22;37.53
62510;BME280;48558;48.242;11.654;2023-03-22T13:13:44;95806.69;;;21.37;36.52
62510;BME280;48558;48.242;11.654;2023-03-22T13:17:58;95796.91;;;21.72;35.74
62510;BME280;48558;48.242;11.654;2023-03-22T13:22:20;95788.84;;;21.69;35.32
62510;BME280;48558;48.242;11.654;2023-03-22T13:26:42;95785.09;;;22.15;36.24
62510;BME280;48558;48.242;11.654;2023-03-22T13:30:59;95780.81;;;22.22;34.67
62510;BME280;48558;48.242;11.654;2023-03-22T13:39:39;95779.97;;;22.06;39.60
62510;BME280;48558;48.242;11.654;2023-03-22T13:43:54;95769.69;;;22.72;36.60
62510;BME280;48558;48.242;11.654;2023-03-22T13:48:09;95770.59;;;22.39;35.27
62510;BME280;48558;48.242;11.654;2023-03-22T13:52:38;95771.88;;;21.82;35.36
62510;BME280;48558;48.242;11.654;2023-03-22T13:56:58;95777.38;;;21.12;37.29
62510;BME280;48558;48.242;11.654;2023-03-22T14:01:16;95766.84;;;20.32;37.80
62510;BME280;48558;48.242;11.654;2023-03-22T14:05:35;95760.69;;;20.81;36.52
62510;BME280;48558;48.242;11.654;2023-03-22T14:09:52;95757.88;;;21.27;36.29
62510;BME280;48558;48.242;11.654;2023-03-22T14:14:15;95760.75;;;21.14;35.97
62510;BME280;48558;48.242;11.654;2023-03-22T14:18:34;95757.13;;;20.46;35.23
62510;BME280;48558;48.242;11.654;2023-03-22T14:23:01;95742.81;;;20.70;35.37
62510;BME280;48558;48.242;11.654;2023-03-22T14:27:17;95743.81;;;20.60;35.30
62510;BME280;48558;48.242;11.654;2023-03-22T14:31:28;95750.97;;;20.35;35.60
62510;BME280;48558;48.242;11.654;2023-03-22T14:35:41;95746.97;;;21.44;33.99
62510;BME280;48558;48.242;11.654;2023-03-22T14:40:11;95728.97;;;22.45;33.20
62510;BME280;48558;48.242;11.654;2023-03-22T14:44:28;95696.06;;;22.76;31.99
62510;BME280;48558;48.242;11.654;2023-03-22T14:48:41;95721.41;;;22.33;32.15
62510;BME280;48558;48.242;11.654;2023-03-22T14:52:52;95723.94;;;22.51;33.45
62510;BME280;48558;48.242;11.654;2023-03-22T14:57:04;95718.25;;;22.36;31.90
62510;BME280;48558;48.242;11.654;2023-03-22T15:01:20;95725.69;;;19.95;34.35
62510;BME280;48558;48.242;11.654;2023-03-22T15:05:42;95715.34;;;20.30;34.49
62510;BME280;48558;48.242;11.654;2023-03-22T15:10:09;95701.38;;;20.63;33.61
62510;BME280;48558;48.242;11.654;2023-03-22T15:14:24;95706.34;;;21.46;31.49
62510;BME280;48558;48.242;11.654;2023-03-22T15:18:36;95709.88;;;20.71;32.38
62510;BME280;48558;48.242;11.654;2023-03-22T15:22:58;95698.72;;;20.19;33.68
62510;BME280;48558;48.242;11.654;2023-03-22T15:27:23;95696.56;;;19.27;34.41
62510;BME280;48558;48.242;11.654;2023-03-22T15:31:41;95699.44;;;19.09;36.32
62510;BME280;48558;48.242;11.654;2023-03-22T15:35:54;95707.69;;;19.33;36.05
62510;BME280;48558;48.242;11.654;2023-03-22T15:40:43;95700.53;;;19.38;35.41
62510;BME280;48558;48.242;11.654;2023-03-22T15:45:00;95711.78;;;19.32;34.70
62510;BME280;48558;48.242;11.654;2023-03-22T15:53:34;95703.59;;;19.34;35.50
62510;BME280;48558;48.242;11.654;2023-03-22T15:57:57;95709.09;;;18.76;36.11
62510;BME280;48558;48.242;11.654;2023-03-22T16:02:22;95707.72;;;19.01;36.23
62510;BME280;48558;48.242;11.654;2023-03-22T16:06:45;95711.53;;;18.85;37.38
62510;BME280;48558;48.242;11.654;2023-03-22T16:10:58;95716.25;;;18.58;36.90
62510;BME280;48558;48.242;11.654;2023-03-22T16:15:15;95707.41;;;18.30;37.87
62510;BME280;48558;48.242;11.654;2023-03-22T16:19:27;95711.41;;;18.16;38.57
62510;BME280;48558;48.242;11.654;2023-03-22T16:23:38;95720.69;;;18.06;40.23
62510;BME280;48558;48.242;11.654;2023-03-22T16:27:49;95730.72;;;18.38;40.45
62510;BME280;48558;48.242;11.654;2023-03-22T16:31:59;95721.94;;;18.29;41.22
62510;BME280;48558;48.242;11.654;2023-03-22T16:36:11;95735.22;;;18.23;41.78
62510;BME280;48558;48.242;11.654;2023-03-22T16:40:25;95727.44;;;18.16;42.46
62510;BME280;48558;48.242;11.654;2023-03-22T16:44:38;95738.13;;;17.93;42.21
62510;BME280;48558;48.242;11.654;2023-03-22T16:48:59;95741.06;;;17.82;41.31
62510;BME280;48558;48.242;11.654;2023-03-22T16:53:20;95742.09;;;17.79;39.61
62510;BME280;48558;48.242;11.654;2023-03-22T16:57:32;95741.50;;;17.32;40.12
62510;BME280;48558;48.242;11.654;2023-03-22T17:01:42;95736.84;;;17.10;40.23
62510;BME280;48558;48.242;11.654;2023-03-22T17:05:53;95746.28;;;16.67;42.35
62510;BME280;48558;48.242;11.654;2023-03-22T17:10:05;95745.53;;;16.03;44.65
62510;BME280;48558;48.242;11.654;2023-03-22T17:14:16;95741.84;;;15.56;46.65
62510;BME280;48558;48.242;11.654;2023-03-22T17:18:28;95753.50;;;15.38;46.88
62510;BME280;48558;48.242;11.654;2023-03-22T17:22:38;95742.84;;;14.65;49.62
62510;BME280;48558;48.242;11.654;2023-03-22T17:26:49;95744.94;;;14.16;55.01
62510;BME280;48558;48.242;11.654;2023-03-22T17:31:01;95747.34;;;13.81;65.73
62510;BME280;48558;48.242;11.654;2023-03-22T17:35:15;95741.03;;;13.44;69.54
62510;BME280;48558;48.242;11.654;2023-03-22T17:39:26;95750.69;;;13.17;77.24
62510;BME280;48558;48.242;11.654;2023-03-22T17:43:45;95748.75;;;12.98;69.07
62510;BME280;48558;48.242;11.654;2023-03-22T17:48:04;95743.13;;;12.86;67.94
62510;BME280;48558;48.242;11.654;2023-03-22T17:52:15;95743.03;;;12.75;66.26
62510;BME280;48558;48.242;11.654;2023-03-22T17:56:26;95759.50;;;12.59;70.96
62510;BME280;48558;48.242;11.654;2023-03-22T18:00:37;95756.69;;;12.33;83.69
62510;BME280;48558;48.242;11.654;2023-03-22T18:04:48;95763.94;;;12.05;84.49
62510;BME280;48558;48.242;11.654;2023-03-22T18:08:58;95758.88;;;11.83;90.72
62510;BME280;48558;48.242;11.654;2023-03-22T18:13:09;95750.78;;;11.45;94.35
62510;BME280;48558;48.242;11.654;2023-03-22T18:17:20;95769.38;;;11.44;92.44
62510;BME280;48558;48.242;11.654;2023-03-22T18:21:32;95766.97;;;11.52;90.96
62510;BME280;48558;48.242;11.654;2023-03-22T18:25:44;95760.19;;;11.18;97.35
62510;BME280;48558;48.242;11.654;2023-03-22T18:29:55;95764.00;;;11.06;100.00
62510;BME280;48558;48.242;11.654;2023-03-22T18:34:06;95772.13;;;10.95;100.00
62510;BME280;48558;48.242;11.654;2023-03-22T18:38:18;95779.28;;;11.02;96.87
62510;BME280;48558;48.242;11.654;2023-03-22T18:42:33;95777.69;;;10.80;98.86
62510;BME280;48558;48.242;11.654;2023-03-22T18:46:44;95775.47;;;10.55;99.64
62510;BME280;48558;48.242;11.654;2023-03-22T18:50:55;95781.47;;;10.68;99.41
62510;BME280;48558;48.242;11.654;2023-03-22T18:55:08;95761.25;;;10.48;100.00
62510;BME280;48558;48.242;11.654;2023-03-22T18:59:20;95771.78;;;10.20;100.00
62510;BME280;48558;48.242;11.654;2023-03-22T19:03:31;95776.56;;;10.20;100.00
62510;BME280;48558;48.242;11.654;2023-03-22T19:07:44;95775.78;;;10.19;100.00
62510;BME280;48558;48.242;11.654;2023-03-22T19:11:55;95771.25;;;10.07;100.00
62510;BME280;48558;48.242;11.654;2023-03-22T19:16:16;95767.56;;;9.86;100.00
62510;BME280;48558;48.242;11.654;2023-03-22T19:20:28;95765.22;;;9.70;100.00
62510;BME280;48558;48.242;11.654;2023-03-22T19:24:39;95782.38;;;9.74;100.00
62510;BME280;48558;48.242;11.654;2023-03-22T19:28:50;95780.72;;;9.91;100.00
62510;BME280;48558;48.242;11.654;2023-03-22T19:33:00;95781.91;;;9.76;100.00
62510;BME280;48558;48.242;11.654;2023-03-22T19:37:11;95783.84;;;9.61;100.00
62510;BME280;48558;48.242;11.654;2023-03-22T19:41:24;95766.38;;;9.31;100.00
62510;BME280;48558;48.242;11.654;2023-03-22T19:45:39;95777.16;;;9.20;100.00
62510;BME280;48558;48.242;11.654;2023-03-22T19:49:51;95779.66;;;9.09;100.00
62510;BME280;48558;48.242;11.654;2023-03-22T19:54:02;95777.28;;;8.93;100.00
62510;BME280;48558;48.242;11.654;2023-03-22T19:58:13;95778.69;;;8.79;100.00
62510;BME280;48558;48.242;11.654;2023-03-22T20:02:24;95795.56;;;9.05;100.00
62510;BME280;48558;48.242;11.654;2023-03-22T20:06:45;95785.59;;;9.49;100.00
62510;BME280;48558;48.242;11.654;2023-03-22T20:10:56;95781.47;;;9.45;100.00
62510;BME280;48558;48.242;11.654;2023-03-22T20:15:07;95786.03;;;9.24;100.00
62510;BME280;48558;48.242;11.654;2023-03-22T20:19:18;95782.59;;;9.38;100.00
62510;BME280;48558;48.242;11.654;2023-03-22T20:23:39;95780.09;;;9.07;100.00
62510;BME280;48558;48.242;11.654;2023-03-22T20:27:49;95785.56;;;8.84;100.00
62510;BME280;48558;48.242;11.654;2023-03-22T20:32:08;95792.59;;;8.76;100.00
62510;BME280;48558;48.242;11.654;2023-03-22T20:36:19;95790.34;;;8.65;100.00
62510;BME280;48558;48.242;11.654;2023-03-22T20:40:30;95784.84;;;8.56;100.00
62510;BME280;48558;48.242;11.654;2023-03-22T20:44:49;95782.56;;;8.54;100.00
62510;BME280;48558;48.242;11.654;2023-03-22T20:49:00;95777.53;;;8.44;100.00
62510;BME280;48558;48.242;11.654;2023-03-22T20:53:14;95796.50;;;8.42;100.00
62510;BME280;48558;48.242;11.654;2023-03-22T20:57:25;95781.97;;;8.32;100.00
62510;BME280;48558;48.242;11.654;2023-03-22T21:01:36;95767.16;;;8.21;100.00
62510;BME280;48558;48.242;11.654;2023-03-22T21:05:47;95761.66;;;8.12;100.00
62510;BME280;48558;48.242;11.654;2023-03-22T21:09:58;95797.84;;;8.19;100.00
62510;BME280;48558;48.242;11.654;2023-03-22T21:14:10;95792.53;;;8.07;100.00
62510;BME280;48558;48.242;11.654;2023-03-22T21:18:21;95790.84;;;7.91;100.00
62510;BME280;48558;48.242;11.654;2023-03-22T21:22:36;95797.25;;;7.88;100.00
62510;BME280;48558;48.242;11.654;2023-03-22T21:26:47;95782.28;;;7.80;100.00
62510;BME280;48558;48.242;11.654;2023-03-22T21:31:03;95794.03;;;7.89;100.00
62510;BME280;48558;48.242;11.654;2023-03-22T21:35:14;95803.50;;;7.88;100.00
62510;BME280;48558;48.242;11.654;2023-03-22T21:39:25;95794.19;;;7.86;100.00
62510;BME280;48558;48.242;11.654;2023-03-22T21:43:38;95790.66;;;7.85;100.00
62510;BME280;48558;48.242;11.654;2023-03-22T21:47:49;95786.41;;;7.84;100.00
62510;BME280;48558;48.242;11.654;2023-03-22T21:52:02;95776.16;;;8.03;100.00
62510;BME280;48558;48.242;11.654;2023-03-22T21:56:14;95777.81;;;8.10;100.00
62510;BME280;48558;48.242;11.654;2023-03-22T22:00:25;95781.66;;;8.12;100.00
62510;BME280;48558;48.242;11.654;2023-03-22T22:04:38;95780.56;;;8.01;100.00
62510;BME280;48558;48.242;11.654;2023-03-22T22:08:50;95769.56;;;8.19;100.00
62510;BME280;48558;48.242;11.654;2023-03-22T22:13:02;95777.97;;;8.51;100.00
62510;BME280;48558;48.242;11.654;2023-03-22T22:17:13;95772.56;;;8.84;100.00
62510;BME280;48558;48.242;11.654;2023-03-22T22:21:25;95773.69;;;9.10;100.00
62510;BME280;48558;48.242;11.654;2023-03-22T22:25:51;95765.19;;;8.90;100.00
62510;BME280;48558;48.242;11.654;2023-03-22T22:30:06;95780.63;;;8.97;100.00
62510;BME280;48558;48.242;11.654;2023-03-22T22:34:18;95771.72;;;9.02;100.00
62510;BME280;48558;48.242;11.654;2023-03-22T22:38:29;95775.06;;;9.06;100.00
62510;BME280;48558;48.242;11.654;2023-03-22T22:42:40;95765.19;;;9.23;100.00
62510;BME280;48558;48.242;11.654;2023-03-22T22:46:51;95759.88;;;9.43;100.00
62510;BME280;48558;48.242;11.654;2023-03-22T22:51:14;95774.56;;;9.49;100.00
62510;BME280;48558;48.242;11.654;2023-03-22T22:55:29;95760.88;;;9.31;100.00
62510;BME280;48558;48.242;11.654;2023-03-22T22:59:39;95761.81;;;9.28;100.00
62510;BME280;48558;48.242;11.654;2023-03-22T23:03:50;95768.41;;;9.21;100.00
62510;BME280;48558;48.242;11.654;2023-03-22T23:08:01;95761.03;;;8.95;100.00
62510;BME280;48558;48.242;11.654;2023-03-22T23:12:13;95766.09;;;8.87;100.00
62510;BME280;48558;48.242;11.654;2023-03-22T23:16:24;95767.75;;;8.94;100.00
62510;BME280;48558;48.242;11.654;2023-03-22T23:20:36;95762.25;;;8.94;100.00
62510;BME280;48558;48.242;11.654;2023-03-22T23:24:55;95762.50;;;9.05;100.00